createdAt,value
2017-08-09T00:01:57.624Z,86.20
2017-08-09T00:04:25.936Z,86.30
2017-08-09T00:06:53.467Z,86.20
2017-08-09T00:09:20.986Z,86.20
2017-08-09T00:11:48.488Z,86.30
2017-08-09T00:14:16.057Z,86.10
2017-08-09T00:16:43.629Z,86.10
2017-08-09T00:19:11.133Z,85.60
2017-08-09T00:21:38.748Z,85.90
2017-08-09T00:24:06.275Z,86.40
2017-08-09T00:26:34.549Z,85.60
2017-08-09T00:29:02.873Z,85.60
2017-08-09T00:31:30.392Z,85.50
2017-08-09T00:33:57.919Z,85.10
2017-08-09T00:36:25.470Z,85.50
2017-08-09T00:38:53.094Z,86.60
2017-08-09T00:41:20.651Z,86.50
2017-08-09T00:43:48.180Z,87.20
2017-08-09T00:46:16.451Z,87.60
2017-08-09T00:48:44.720Z,88.10
2017-08-09T00:51:13.015Z,88.70
2017-08-09T00:53:40.534Z,88.70
2017-08-09T00:56:08.160Z,89.20
2017-08-09T00:58:35.706Z,89.20
2017-08-09T01:01:03.227Z,89.20
2017-08-09T01:03:31.519Z,89.90
2017-08-09T01:05:59.816Z,90.10
2017-08-09T01:08:27.320Z,90.10
2017-08-09T01:10:54.839Z,90.30
2017-08-09T01:13:22.386Z,90.40
2017-08-09T01:15:49.900Z,90.70
2017-08-09T01:18:17.420Z,90.70
2017-08-09T01:20:44.967Z,90.50
2017-08-09T01:23:12.517Z,90.40
2017-08-09T01:25:40.046Z,90.30
2017-08-09T01:28:07.571Z,89.60
2017-08-09T01:30:35.090Z,89.40
2017-08-09T01:33:02.607Z,88.30
2017-08-09T01:35:30.158Z,87.90
2017-08-09T01:37:57.673Z,87.70
2017-08-09T01:40:25.194Z,88.00
2017-08-09T01:42:52.721Z,87.50
2017-08-09T01:45:20.234Z,86.10
2017-08-09T01:47:48.539Z,85.80
2017-08-09T01:50:16.068Z,85.80
2017-08-09T01:52:44.351Z,84.90
2017-08-09T01:55:11.932Z,84.90
2017-08-09T01:57:39.474Z,84.90
2017-08-09T02:00:06.980Z,84.70
2017-08-09T02:02:34.483Z,84.80
2017-08-09T02:05:02.067Z,84.10
2017-08-09T02:07:29.582Z,83.80
2017-08-09T02:09:57.860Z,84.50
2017-08-09T02:12:26.161Z,84.80
2017-08-09T02:14:53.679Z,84.70
2017-08-09T02:17:21.198Z,85.50
2017-08-09T02:19:48.857Z,85.60
2017-08-09T02:22:16.356Z,85.70
2017-08-09T02:24:43.887Z,85.80
2017-08-09T02:27:12.298Z,85.60
2017-08-09T02:29:39.801Z,85.60
2017-08-09T02:32:07.312Z,85.60
2017-08-09T02:34:34.844Z,85.70
2017-08-09T02:37:02.356Z,86.10
2017-08-09T02:39:29.870Z,86.30
2017-08-09T02:41:57.419Z,86.70
2017-08-09T02:44:25.698Z,87.30
2017-08-09T02:46:53.229Z,87.20
2017-08-09T02:49:20.761Z,87.30
2017-08-09T02:51:48.260Z,86.60
2017-08-09T02:54:16.525Z,86.10
2017-08-09T02:56:44.062Z,86.00
2017-08-09T02:59:11.565Z,85.50
2017-08-09T03:01:39.087Z,85.80
2017-08-09T03:04:06.612Z,86.00
2017-08-09T03:06:34.108Z,85.80
2017-08-09T03:09:01.623Z,86.00
2017-08-09T03:11:29.296Z,85.70
2017-08-09T03:13:56.810Z,85.80
2017-08-09T03:16:25.081Z,86.30
2017-08-09T03:18:53.395Z,86.50
2017-08-09T03:21:20.910Z,86.50
2017-08-09T03:23:49.195Z,86.90
2017-08-09T03:26:17.507Z,87.30
2017-08-09T03:28:45.024Z,87.20
2017-08-09T03:31:13.294Z,88.00
2017-08-09T03:33:40.816Z,87.90
2017-08-09T03:36:08.435Z,88.30
2017-08-09T03:38:35.936Z,88.50
2017-08-09T03:41:03.482Z,88.60
2017-08-09T03:43:30.984Z,89.00
2017-08-09T03:45:58.502Z,88.70
2017-08-09T03:48:26.038Z,88.70
2017-08-09T03:50:53.548Z,88.70
2017-08-09T03:53:21.056Z,88.80
2017-08-09T03:55:48.583Z,88.60
2017-08-09T03:58:16.859Z,88.40
2017-08-09T04:00:45.124Z,88.30
2017-08-09T04:03:12.670Z,88.30
2017-08-09T04:05:40.167Z,88.20
2017-08-09T04:08:08.435Z,88.00
2017-08-09T04:10:36.850Z,88.00
2017-08-09T04:13:04.407Z,88.00
2017-08-09T04:15:31.934Z,88.00
2017-08-09T04:18:00.224Z,88.20
2017-08-09T04:20:27.729Z,88.10
2017-08-09T04:22:55.250Z,88.00
2017-08-09T04:25:22.777Z,88.30
2017-08-09T04:27:51.048Z,88.00
2017-08-09T04:30:19.331Z,87.10
2017-08-09T04:32:47.642Z,87.00
2017-08-09T04:35:15.162Z,86.80
2017-08-09T04:37:43.427Z,85.30
2017-08-09T04:40:10.975Z,85.30
2017-08-09T04:42:38.507Z,84.60
2017-08-09T04:45:06.008Z,85.20
2017-08-09T04:47:34.296Z,84.00
2017-08-09T04:50:02.560Z,83.60
2017-08-09T04:52:30.850Z,83.50
2017-08-09T04:54:59.159Z,83.20
2017-08-09T04:57:26.656Z,83.10
2017-08-09T04:59:54.152Z,83.00
2017-08-09T05:02:21.679Z,82.20
2017-08-09T05:04:49.188Z,81.40
2017-08-09T05:07:16.687Z,80.70
2017-08-09T05:09:44.213Z,80.50
2017-08-09T05:12:11.730Z,80.10
2017-08-09T05:14:40.011Z,78.90
2017-08-09T05:17:08.319Z,78.90
2017-08-09T05:19:35.830Z,78.90
2017-08-09T05:22:03.338Z,78.90
2017-08-09T05:24:30.878Z,79.50
2017-08-09T05:26:58.394Z,78.90
2017-08-09T05:29:25.902Z,78.80
2017-08-09T05:31:53.458Z,78.50
2017-08-09T05:34:21.724Z,78.70
2017-08-09T05:36:50.015Z,79.30
2017-08-09T05:39:18.423Z,78.90
2017-08-09T05:41:45.938Z,78.90
2017-08-09T05:44:14.218Z,78.40
2017-08-09T05:46:42.508Z,77.30
2017-08-09T05:49:10.802Z,75.90
2017-08-09T05:51:38.325Z,75.90
2017-08-09T05:54:05.856Z,76.20
2017-08-09T05:56:33.371Z,75.90
2017-08-09T05:59:00.876Z,75.80
2017-08-09T06:01:28.420Z,75.20
2017-08-09T06:03:55.934Z,75.90
2017-08-09T06:06:23.458Z,74.30
2017-08-09T06:08:51.006Z,75.10
2017-08-09T06:11:18.508Z,75.30
2017-08-09T06:13:46.022Z,75.40
2017-08-09T06:16:14.332Z,74.60
2017-08-09T06:18:41.846Z,74.50
2017-08-09T06:21:10.153Z,73.40
2017-08-09T06:23:37.698Z,73.20
2017-08-09T06:26:05.215Z,73.20
2017-08-09T06:28:32.739Z,73.00
2017-08-09T06:31:00.263Z,72.70
2017-08-09T06:33:27.783Z,71.60
2017-08-09T06:35:55.285Z,72.50
2017-08-09T06:38:22.817Z,72.00
2017-08-09T06:40:50.339Z,71.50
2017-08-09T06:43:18.622Z,73.30
2017-08-09T06:45:46.937Z,73.70
2017-08-09T06:48:14.486Z,73.50
2017-08-09T06:50:41.988Z,74.30
2017-08-09T06:53:09.610Z,73.80
2017-08-09T06:55:37.130Z,73.90
2017-08-09T06:58:05.405Z,73.30
2017-08-09T07:00:33.722Z,72.80
2017-08-09T07:03:01.272Z,72.80
2017-08-09T07:05:29.558Z,73.50
2017-08-09T07:07:57.856Z,70.50
2017-08-09T07:10:25.391Z,70.50
2017-08-09T07:12:53.671Z,69.50
2017-08-09T07:15:21.972Z,69.00
2017-08-09T07:17:49.484Z,68.90
2017-08-09T07:20:17.010Z,68.60
2017-08-09T07:22:44.558Z,68.60
2017-08-09T07:25:12.068Z,68.20
2017-08-09T07:27:40.340Z,68.90
2017-08-09T07:30:07.910Z,68.40
2017-08-09T07:32:36.188Z,68.40
2017-08-09T07:35:03.688Z,68.30
2017-08-09T07:37:31.230Z,68.80
2017-08-09T07:39:58.729Z,69.50
2017-08-09T07:42:27.001Z,70.70
2017-08-09T07:44:55.310Z,70.70
2017-08-09T07:47:22.876Z,70.60
2017-08-09T07:49:51.249Z,71.00
2017-08-09T07:52:18.799Z,70.00
2017-08-09T07:54:46.296Z,68.40
2017-08-09T07:57:13.803Z,67.70
2017-08-09T07:59:42.096Z,64.80
2017-08-09T08:02:09.615Z,64.80
2017-08-09T08:04:37.112Z,64.20
2017-08-09T08:07:04.680Z,63.50
2017-08-09T08:09:32.180Z,61.10
2017-08-09T08:11:59.695Z,60.70
2017-08-09T08:14:27.243Z,58.80
2017-08-09T08:16:54.736Z,58.40
2017-08-09T08:19:22.250Z,59.70
2017-08-09T08:21:49.792Z,59.50
2017-08-09T08:24:18.075Z,59.50
2017-08-09T08:26:45.599Z,59.50
2017-08-09T08:29:13.124Z,60.20
2017-08-09T08:31:40.624Z,59.80
2017-08-09T08:34:08.137Z,59.60
2017-08-09T08:36:35.678Z,57.30
2017-08-09T08:39:03.261Z,56.10
2017-08-09T08:41:30.770Z,54.30
2017-08-09T08:43:59.064Z,54.30
2017-08-09T08:46:27.342Z,54.80
2017-08-09T08:48:54.927Z,54.70
2017-08-09T08:51:22.470Z,52.80
2017-08-09T08:53:49.991Z,50.60
2017-08-09T08:56:17.492Z,48.90
2017-08-09T08:58:45.034Z,47.20
2017-08-09T09:01:12.546Z,45.20
2017-08-09T09:03:40.063Z,45.90
2017-08-09T09:06:07.636Z,44.30
2017-08-09T09:08:35.140Z,41.60
2017-08-09T09:11:02.644Z,41.50
2017-08-09T09:13:30.172Z,42.70
2017-08-09T09:15:58.437Z,46.60
2017-08-09T09:18:25.941Z,46.50
2017-08-09T09:20:53.468Z,47.10
2017-08-09T09:23:21.736Z,47.50
2017-08-09T09:25:50.015Z,48.00
2017-08-09T09:28:18.332Z,49.30
2017-08-09T09:30:45.834Z,49.30
2017-08-09T09:33:13.351Z,48.80
2017-08-09T09:35:40.907Z,47.80
2017-08-09T09:38:08.427Z,45.60
2017-08-09T09:40:36.693Z,40.30
2017-08-09T09:43:05.008Z,37.60
2017-08-09T09:45:32.516Z,37.40
2017-08-09T09:48:00.020Z,35.20
2017-08-09T09:50:27.575Z,36.10
2017-08-09T09:52:55.099Z,36.10
2017-08-09T09:55:22.614Z,35.40
2017-08-09T09:57:50.157Z,36.30
2017-08-09T10:00:17.675Z,35.60
2017-08-09T10:02:45.186Z,34.50
2017-08-09T10:05:13.254Z,32.70
2017-08-09T10:07:40.765Z,30.50
2017-08-09T10:10:08.265Z,29.70
2017-08-09T10:12:35.831Z,29.50
2017-08-09T10:15:03.343Z,30.70
2017-08-09T10:17:31.671Z,32.70
2017-08-09T10:19:59.204Z,32.40
2017-08-09T10:22:26.709Z,31.30
2017-08-09T10:24:54.226Z,30.20
2017-08-09T10:27:21.760Z,29.90
2017-08-09T10:29:50.075Z,30.70
2017-08-09T10:32:17.586Z,30.50
2017-08-09T10:34:45.115Z,28.00
2017-08-09T10:37:12.621Z,29.10
2017-08-09T10:39:40.911Z,28.40
2017-08-09T10:42:08.432Z,28.40
2017-08-09T10:44:35.942Z,28.30
2017-08-09T10:47:03.458Z,28.90
2017-08-09T10:49:31.753Z,28.70
2017-08-09T10:51:59.251Z,28.70
2017-08-09T10:54:26.767Z,30.40
2017-08-09T10:56:54.314Z,29.00
2017-08-09T10:59:22.594Z,27.90
2017-08-09T11:01:50.905Z,28.40
2017-08-09T11:04:18.432Z,28.30
2017-08-09T11:06:46.696Z,30.40
2017-08-09T11:09:14.959Z,30.70
2017-08-09T11:11:42.507Z,30.00
2017-08-09T11:14:10.022Z,29.00
2017-08-09T11:16:37.519Z,28.80
2017-08-09T11:19:05.075Z,27.90
2017-08-09T11:21:32.603Z,28.50
2017-08-09T11:24:00.114Z,27.90
2017-08-09T11:26:27.640Z,27.40
2017-08-09T11:28:55.159Z,28.30
2017-08-09T11:31:22.656Z,27.20
2017-08-09T11:33:50.301Z,26.10
2017-08-09T11:36:17.804Z,26.60
2017-08-09T11:38:45.304Z,27.90
2017-08-09T11:41:12.828Z,26.80
2017-08-09T11:43:40.354Z,26.00
2017-08-09T11:46:07.871Z,23.30
2017-08-09T11:48:35.400Z,23.30
2017-08-09T11:51:02.914Z,21.90
2017-08-09T11:53:30.443Z,20.00
2017-08-09T11:55:57.974Z,20.90
2017-08-09T11:58:25.586Z,21.30
2017-08-09T12:00:53.084Z,20.80
2017-08-09T12:03:20.643Z,20.40
2017-08-09T12:05:48.228Z,20.20
2017-08-09T12:08:16.511Z,20.00
2017-08-09T12:10:44.045Z,20.00
2017-08-09T12:13:11.565Z,21.60
2017-08-09T12:15:39.064Z,23.00
2017-08-09T12:18:06.593Z,23.90
2017-08-09T12:20:34.096Z,23.00
2017-08-09T12:23:02.378Z,26.20
2017-08-09T12:25:29.966Z,26.10
2017-08-09T12:27:57.483Z,27.80
2017-08-09T12:30:25.766Z,29.20
2017-08-09T12:32:54.065Z,30.30
2017-08-09T12:35:21.636Z,30.20
2017-08-09T12:37:49.164Z,31.10
2017-08-09T12:40:17.469Z,32.50
2017-08-09T12:42:45.027Z,32.40
2017-08-09T12:45:12.547Z,32.10
2017-08-09T12:47:40.859Z,27.30
2017-08-09T12:50:08.424Z,27.30
2017-08-09T12:52:35.924Z,25.50
2017-08-09T12:55:03.540Z,23.10
2017-08-09T12:57:31.045Z,23.60
2017-08-09T12:59:58.558Z,21.60
2017-08-09T13:02:26.084Z,21.20
2017-08-09T13:04:54.352Z,24.60
2017-08-09T13:07:22.629Z,23.70
2017-08-09T13:09:50.936Z,22.20
2017-08-09T13:12:18.435Z,22.00
2017-08-09T13:14:45.946Z,21.90
2017-08-09T13:17:13.486Z,25.30
2017-08-09T13:19:41.770Z,28.50
2017-08-09T13:22:09.290Z,28.40
2017-08-09T13:24:36.838Z,29.20
2017-08-09T13:27:04.337Z,28.30
2017-08-09T13:29:32.623Z,28.30
2017-08-09T13:32:00.154Z,28.30
2017-08-09T13:34:28.480Z,28.60
2017-08-09T13:36:56.018Z,28.60
2017-08-09T13:39:23.599Z,30.30
2017-08-09T13:41:51.119Z,29.30
2017-08-09T13:44:19.400Z,28.40
2017-08-09T13:46:47.816Z,29.70
2017-08-09T13:49:15.324Z,29.60
2017-08-09T13:51:42.820Z,27.90
2017-08-09T13:54:10.348Z,29.40
2017-08-09T13:56:38.627Z,27.20
2017-08-09T13:59:06.906Z,27.60
2017-08-09T14:01:35.319Z,27.30
2017-08-09T14:04:02.839Z,27.20
2017-08-09T14:06:31.162Z,22.90
2017-08-09T14:08:58.701Z,22.80
2017-08-09T14:11:26.204Z,23.30
2017-08-09T14:13:53.724Z,25.10
2017-08-09T14:16:21.272Z,25.60
2017-08-09T14:18:48.848Z,25.30
2017-08-09T14:21:16.349Z,24.90
2017-08-09T14:23:43.965Z,23.50
2017-08-09T14:26:11.469Z,21.70
2017-08-09T14:28:38.988Z,22.10
2017-08-09T14:31:06.531Z,20.90
2017-08-09T14:33:34.101Z,21.60
2017-08-09T14:36:01.659Z,22.80
2017-08-09T14:38:29.183Z,22.70
2017-08-09T14:40:57.474Z,23.20
2017-08-09T14:43:24.986Z,23.10
2017-08-09T14:45:52.512Z,21.40
2017-08-09T14:48:20.016Z,20.10
2017-08-09T14:50:47.515Z,19.90
2017-08-09T14:53:15.085Z,19.80
2017-08-09T14:55:42.602Z,24.00
2017-08-09T14:58:10.867Z,27.30
2017-08-09T15:00:38.392Z,27.20
2017-08-09T15:03:05.911Z,28.40
2017-08-09T15:05:33.421Z,30.70
2017-08-09T15:08:01.357Z,30.90
2017-08-09T15:10:28.923Z,31.50
2017-08-09T15:12:56.419Z,34.10
2017-08-09T15:15:23.972Z,32.40
2017-08-09T15:17:51.600Z,33.10
2017-08-09T15:20:19.118Z,34.40
2017-08-09T15:22:47.413Z,34.50
2017-08-09T15:25:14.930Z,34.40
2017-08-09T15:27:42.436Z,34.80
2017-08-09T15:30:09.987Z,33.30
2017-08-09T15:32:37.489Z,34.50
2017-08-09T15:35:05.022Z,32.90
2017-08-09T15:37:32.562Z,33.80
2017-08-09T15:40:00.142Z,34.10
2017-08-09T15:42:27.640Z,33.80
2017-08-09T15:44:55.190Z,34.00
2017-08-09T15:47:22.707Z,34.00
2017-08-09T15:49:50.231Z,35.00
2017-08-09T15:52:18.532Z,36.20
2017-08-09T15:54:46.039Z,36.10
2017-08-09T15:57:13.536Z,36.20
2017-08-09T15:59:41.839Z,36.80
2017-08-09T16:02:09.353Z,36.80
2017-08-09T16:04:36.874Z,37.60
2017-08-09T16:07:04.419Z,36.40
2017-08-09T16:09:31.915Z,35.50
2017-08-09T16:11:59.425Z,35.00
2017-08-09T16:14:26.962Z,35.30
2017-08-09T16:16:55.270Z,35.90
2017-08-09T16:19:22.777Z,35.80
2017-08-09T16:21:50.318Z,36.00
2017-08-09T16:24:17.830Z,36.20
2017-08-09T16:26:45.328Z,36.80
2017-08-09T16:29:12.965Z,36.40
2017-08-09T16:31:40.524Z,35.80
2017-08-09T16:34:08.081Z,36.30
2017-08-09T16:36:35.612Z,37.50
2017-08-09T16:39:03.917Z,37.00
2017-08-09T16:41:31.415Z,37.00
2017-08-09T16:43:58.963Z,38.40
2017-08-09T16:46:26.482Z,37.30
2017-08-09T16:48:53.984Z,38.50
2017-08-09T16:51:21.532Z,38.10
2017-08-09T16:53:49.032Z,38.30
2017-08-09T16:56:17.300Z,37.70
2017-08-09T16:58:45.611Z,38.40
2017-08-09T17:01:13.112Z,38.30
2017-08-09T17:03:40.630Z,36.90
2017-08-09T17:06:08.169Z,37.60
2017-08-09T17:08:35.692Z,38.10
2017-08-09T17:11:03.315Z,38.40
2017-08-09T17:13:30.889Z,39.30
2017-08-09T17:15:58.406Z,40.00
2017-08-09T17:18:25.923Z,39.40
2017-08-09T17:20:53.467Z,39.10
2017-08-09T17:23:20.986Z,38.30
2017-08-09T17:25:48.516Z,38.80
2017-08-09T17:28:16.020Z,39.70
2017-08-09T17:30:43.538Z,40.10
2017-08-09T17:33:11.828Z,40.60
2017-08-09T17:35:39.320Z,40.60
2017-08-09T17:38:06.831Z,40.30
2017-08-09T17:40:34.393Z,40.80
2017-08-09T17:43:01.892Z,40.90
2017-08-09T17:45:29.427Z,41.80
2017-08-09T17:47:56.971Z,42.30
2017-08-09T17:50:24.495Z,42.40
2017-08-09T17:52:51.997Z,42.50
2017-08-09T17:55:19.523Z,42.60
2017-08-09T17:57:47.024Z,42.50
2017-08-09T18:00:14.538Z,42.80
2017-08-09T18:02:42.111Z,43.00
2017-08-09T18:05:09.611Z,43.40
2017-08-09T18:07:37.104Z,44.10
2017-08-09T18:10:04.655Z,43.90
2017-08-09T18:12:32.937Z,44.50
2017-08-09T18:15:00.525Z,44.40
2017-08-09T18:17:28.082Z,44.60
2017-08-09T18:19:55.644Z,45.20
2017-08-09T18:22:23.143Z,45.50
2017-08-09T18:24:50.678Z,45.60
2017-08-09T18:27:18.195Z,45.90
2017-08-09T18:29:45.714Z,46.50
2017-08-09T18:32:13.360Z,47.60
2017-08-09T18:34:40.873Z,47.60
2017-08-09T18:37:08.373Z,48.60
2017-08-09T18:39:35.910Z,49.30
2017-08-09T18:42:03.412Z,48.90
2017-08-09T18:44:31.029Z,49.40
2017-08-09T18:46:58.541Z,49.70
2017-08-09T18:49:26.804Z,51.30
2017-08-09T18:51:54.343Z,50.70
2017-08-09T18:54:21.898Z,50.40
2017-08-09T18:56:49.436Z,50.40
2017-08-09T18:59:16.937Z,50.30
2017-08-09T19:01:44.557Z,51.10
2017-08-09T19:04:12.083Z,51.50
2017-08-09T19:06:40.367Z,51.10
2017-08-09T19:09:07.868Z,51.10
2017-08-09T19:11:35.388Z,50.40
2017-08-09T19:14:02.908Z,51.00
2017-08-09T19:16:30.431Z,51.00
2017-08-09T19:18:57.979Z,51.30
2017-08-09T19:21:25.485Z,51.60
2017-08-09T19:23:53.016Z,51.90
2017-08-09T19:26:20.547Z,52.40
2017-08-09T19:28:48.073Z,52.70
2017-08-09T19:31:16.389Z,52.70
2017-08-09T19:33:43.905Z,52.60
2017-08-09T19:36:12.180Z,53.30
2017-08-09T19:38:39.755Z,53.30
2017-08-09T19:41:08.039Z,54.50
2017-08-09T19:43:35.543Z,54.50
2017-08-09T19:46:03.085Z,55.50
2017-08-09T19:48:30.603Z,55.60
2017-08-09T19:50:58.914Z,56.40
2017-08-09T19:53:26.461Z,56.30
2017-08-09T19:55:53.986Z,56.40
2017-08-09T19:58:22.309Z,57.40
2017-08-09T20:00:49.849Z,57.30
2017-08-09T20:03:17.426Z,57.30
2017-08-09T20:05:44.942Z,57.60
2017-08-09T20:08:13.255Z,58.10
2017-08-09T20:10:40.770Z,58.00
2017-08-09T20:13:08.287Z,57.80
2017-08-09T20:15:35.808Z,58.00
2017-08-09T20:18:03.335Z,58.20
2017-08-09T20:20:30.895Z,58.20
2017-08-09T20:22:58.411Z,58.70
2017-08-09T20:25:25.914Z,59.30
2017-08-09T20:27:53.441Z,59.60
2017-08-09T20:30:20.982Z,60.00
2017-08-09T20:32:48.547Z,61.00
2017-08-09T20:35:16.106Z,61.60
2017-08-09T20:37:43.624Z,62.10
2017-08-09T20:40:12.168Z,66.50
2017-08-09T20:42:39.719Z,65.80
2017-08-09T20:45:07.264Z,67.20
2017-08-09T20:47:34.763Z,67.90
2017-08-09T20:50:02.382Z,68.30
2017-08-09T20:52:29.903Z,68.10
2017-08-09T20:54:58.169Z,69.50
2017-08-09T20:57:26.464Z,69.50
2017-08-09T20:59:54.742Z,69.00
2017-08-09T21:02:22.248Z,68.90
2017-08-09T21:04:49.764Z,68.50
2017-08-09T21:07:17.273Z,68.40
2017-08-09T21:09:44.810Z,68.60
2017-08-09T21:12:12.318Z,69.00
2017-08-09T21:14:40.592Z,69.90
2017-08-09T21:17:08.911Z,71.10
2017-08-09T21:19:36.422Z,70.30
2017-08-09T21:22:03.930Z,69.50
2017-08-09T21:24:31.449Z,69.50
2017-08-09T21:26:59.714Z,69.40
2017-08-09T21:29:27.324Z,69.30
2017-08-09T21:31:54.834Z,71.30
2017-08-09T21:34:22.351Z,71.80
2017-08-09T21:36:49.882Z,71.70
2017-08-09T21:39:17.400Z,72.00
2017-08-09T21:41:44.933Z,72.20
2017-08-09T21:44:12.445Z,72.30
2017-08-09T21:46:40.730Z,73.40
2017-08-09T21:49:08.274Z,73.30
2017-08-09T21:51:36.541Z,73.10
2017-08-09T21:54:04.836Z,73.00
2017-08-09T21:56:32.363Z,73.00
2017-08-09T21:59:01.387Z,72.00
2017-08-09T22:01:28.880Z,71.90
2017-08-09T22:03:56.418Z,72.40
2017-08-09T22:06:23.926Z,71.80
2017-08-09T22:08:51.424Z,72.20
2017-08-09T22:11:18.970Z,72.70
2017-08-09T22:13:47.278Z,73.10
2017-08-09T22:16:14.790Z,73.00
2017-08-09T22:18:42.321Z,73.70
2017-08-09T22:21:09.832Z,73.90
2017-08-09T22:23:37.356Z,73.80
2017-08-09T22:26:04.974Z,72.60
2017-08-09T22:28:32.490Z,73.30
2017-08-09T22:31:00.798Z,74.60
2017-08-09T22:33:28.313Z,74.60
2017-08-09T22:35:55.926Z,75.80
2017-08-09T22:38:23.452Z,75.10
2017-08-09T22:40:51.716Z,74.70
2017-08-09T22:43:19.998Z,75.80
2017-08-09T22:45:48.310Z,74.80
2017-08-09T22:48:15.820Z,74.80
2017-08-09T22:50:43.328Z,74.70
2017-08-09T22:53:10.869Z,74.70
2017-08-09T22:55:38.378Z,75.00
2017-08-09T22:58:05.895Z,75.30
2017-08-09T23:00:33.425Z,75.50
2017-08-09T23:03:01.719Z,76.00
2017-08-09T23:05:29.218Z,75.90
2017-08-09T23:07:56.736Z,76.00
2017-08-09T23:10:24.254Z,76.70
2017-08-09T23:12:51.784Z,76.20
2017-08-09T23:15:25.375Z,75.40
2017-08-09T23:17:52.932Z,74.70
2017-08-09T23:20:20.490Z,74.10
2017-08-09T23:22:47.995Z,73.00
2017-08-09T23:25:15.551Z,72.90
2017-08-09T23:27:43.052Z,72.60
2017-08-09T23:30:10.556Z,74.00
2017-08-09T23:32:38.087Z,76.60
2017-08-09T23:35:05.588Z,76.60
2017-08-09T23:37:33.087Z,76.30
2017-08-09T23:40:00.628Z,76.60
2017-08-09T23:42:28.901Z,76.70
2017-08-09T23:44:57.168Z,76.20
2017-08-09T23:47:25.478Z,76.80
2017-08-09T23:49:52.993Z,76.80
2017-08-09T23:52:20.512Z,75.90
2017-08-09T23:54:48.054Z,75.80
2017-08-09T23:57:15.572Z,75.50
2017-08-09T23:59:43.893Z,74.10
